This is the latest recevied weather packets stored in our database for station/object CE4ERM-13. If no packets are shown the sender has not sent any weather packets the latest 10 day(s).
| Time | Temp. | Humidity | Pressure | Rain* | Wind** | Luminosity | Snow |
|---|---|---|---|---|---|---|---|
| 1777826212 | 31.11° C | 26% | 1017.5 hPa | - | - | - | - |
| 1777825612 | 31.11° C | 24% | 1016.9 hPa | - | - | - | - |
| 1777825010 | 31.11° C | 25% | 1019.7 hPa | - | - | - | - |
| 1777824410 | 31.11° C | 25% | 1018.8 hPa | - | - | - | - |
| 1777823811 | 30.56° C | 25% | 1018.3 hPa | - | - | - | - |
| 1777823209 | 30.56° C | 25% | 1018 hPa | - | - | - | - |
| 1777822609 | 29.44° C | 27% | 1018.7 hPa | - | - | - | - |
| 1777822009 | 29.44° C | 27% | 1018.7 hPa | - | - | - | - |
| 1777821033 | 20° C | 45% | 1017.8 hPa | - | - | - | - |
| 1777820208 | 27.22° C | 30% | 1019.6 hPa | - | - | - | - |
| 1777819608 | 26.67° C | 30% | 1019.4 hPa | - | - | - | - |
| 1777819054 | 18.89° C | 49% | 1018.8 hPa | - | - | - | - |
| 1777819008 | 26.67° C | 31% | 1019.6 hPa | - | - | - | - |
| 1777818453 | 18.33° C | 49% | 1019.5 hPa | - | - | - | - |
| 1777818406 | 26.11° C | 32% | 1019.3 hPa | - | - | - | - |
| 1777817853 | 18.33° C | 49% | 1020.7 hPa | - | - | - | - |
| 1777817252 | 17.78° C | 50% | 1020 hPa | - | - | - | - |
| 1777817205 | 23.33° C | 37% | 1019.5 hPa | - | - | - | - |
| 1777816652 | 17.78° C | 51% | 1026 hPa | - | - | - | - |
| 1777816052 | 17.78° C | 51% | 1018.7 hPa | - | - | - | - |
| 1777816004 | 22.78° C | 39% | 1019.2 hPa | - | - | - | - |
| 1777815452 | 17.78° C | 51% | 1023.6 hPa | - | - | - | - |
| 1777815404 | 22.78° C | 39% | 1018.2 hPa | - | - | - | - |
| 1777814851 | 17.22° C | 50% | 1019.5 hPa | - | - | - | - |
| 1777814804 | 22.22° C | 40% | 1018.4 hPa | - | - | - | - |
* Rain since midnight (hover to see other rain measurements)
** Current wind speed in m/s (hover to see current wind gust speed)